sensor_id;sensor_type;location;lat;lon;timestamp;P1;durP1;ratioP1;P2;durP2;ratioP2
19388;SDS011;9830;41.876;23.474;2022-10-22T00:00:07;2.47;;;1.37;;
19388;SDS011;9830;41.876;23.474;2022-10-22T00:02:34;2.10;;;1.97;;
19388;SDS011;9830;41.876;23.474;2022-10-22T00:05:00;0.67;;;0.47;;
19388;SDS011;9830;41.876;23.474;2022-10-22T00:07:25;1.27;;;1.00;;
19388;SDS011;9830;41.876;23.474;2022-10-22T00:09:51;3.33;;;1.77;;
19388;SDS011;9830;41.876;23.474;2022-10-22T00:12:17;0.57;;;0.57;;
19388;SDS011;9830;41.876;23.474;2022-10-22T00:14:43;1.53;;;1.43;;
19388;SDS011;9830;41.876;23.474;2022-10-22T00:17:09;2.87;;;2.33;;
19388;SDS011;9830;41.876;23.474;2022-10-22T00:19:35;1.83;;;1.37;;
19388;SDS011;9830;41.876;23.474;2022-10-22T00:22:00;2.30;;;1.17;;
19388;SDS011;9830;41.876;23.474;2022-10-22T00:24:29;1.03;;;1.03;;
19388;SDS011;9830;41.876;23.474;2022-10-22T00:26:56;5.30;;;2.10;;
19388;SDS011;9830;41.876;23.474;2022-10-22T00:29:22;0.93;;;0.93;;
19388;SDS011;9830;41.876;23.474;2022-10-22T00:31:48;0.63;;;0.63;;
19388;SDS011;9830;41.876;23.474;2022-10-22T00:34:15;1.03;;;0.93;;
19388;SDS011;9830;41.876;23.474;2022-10-22T00:36:42;1.00;;;0.97;;
19388;SDS011;9830;41.876;23.474;2022-10-22T00:39:08;4.33;;;2.27;;
19388;SDS011;9830;41.876;23.474;2022-10-22T00:41:34;2.30;;;2.03;;
19388;SDS011;9830;41.876;23.474;2022-10-22T00:44:01;2.10;;;1.17;;
19388;SDS011;9830;41.876;23.474;2022-10-22T00:46:29;1.07;;;1.07;;
19388;SDS011;9830;41.876;23.474;2022-10-22T00:48:55;2.53;;;1.93;;
19388;SDS011;9830;41.876;23.474;2022-10-22T00:51:24;0.87;;;0.73;;
19388;SDS011;9830;41.876;23.474;2022-10-22T00:53:54;0.80;;;0.80;;
19388;SDS011;9830;41.876;23.474;2022-10-22T00:56:24;2.60;;;1.60;;
19388;SDS011;9830;41.876;23.474;2022-10-22T00:58:57;3.57;;;1.40;;
19388;SDS011;9830;41.876;23.474;2022-10-22T01:01:29;0.80;;;0.80;;
19388;SDS011;9830;41.876;23.474;2022-10-22T01:03:56;1.73;;;1.63;;
19388;SDS011;9830;41.876;23.474;2022-10-22T01:06:29;1.70;;;1.60;;
19388;SDS011;9830;41.876;23.474;2022-10-22T01:30:52;2.47;;;0.93;;
19388;SDS011;9830;41.876;23.474;2022-10-22T01:33:21;10.40;;;1.70;;
19388;SDS011;9830;41.876;23.474;2022-10-22T01:35:49;4.30;;;2.10;;
19388;SDS011;9830;41.876;23.474;2022-10-22T01:38:17;1.77;;;0.83;;
19388;SDS011;9830;41.876;23.474;2022-10-22T01:40:47;17.97;;;1.93;;
19388;SDS011;9830;41.876;23.474;2022-10-22T01:43:14;0.90;;;0.90;;
19388;SDS011;9830;41.876;23.474;2022-10-22T01:48:28;0.50;;;0.50;;
19388;SDS011;9830;41.876;23.474;2022-10-22T01:53:52;5.27;;;1.67;;
19388;SDS011;9830;41.876;23.474;2022-10-22T01:57:07;3.60;;;2.30;;
19388;SDS011;9830;41.876;23.474;2022-10-22T02:07:56;1.40;;;1.40;;
19388;SDS011;9830;41.876;23.474;2022-10-22T02:10:29;2.67;;;1.67;;
19388;SDS011;9830;41.876;23.474;2022-10-22T02:12:56;0.73;;;0.73;;
19388;SDS011;9830;41.876;23.474;2022-10-22T02:15:24;0.47;;;0.47;;
19388;SDS011;9830;41.876;23.474;2022-10-22T02:17:51;1.57;;;1.47;;
19388;SDS011;9830;41.876;23.474;2022-10-22T02:20:30;3.77;;;2.20;;
19388;SDS011;9830;41.876;23.474;2022-10-22T02:22:59;4.93;;;2.70;;
19388;SDS011;9830;41.876;23.474;2022-10-22T02:25:27;1.47;;;1.37;;
19388;SDS011;9830;41.876;23.474;2022-10-22T02:27:58;1.70;;;1.60;;
19388;SDS011;9830;41.876;23.474;2022-10-22T02:30:24;0.77;;;0.77;;
19388;SDS011;9830;41.876;23.474;2022-10-22T02:35:20;1.80;;;1.70;;
19388;SDS011;9830;41.876;23.474;2022-10-22T02:37:47;7.53;;;1.10;;
19388;SDS011;9830;41.876;23.474;2022-10-22T02:40:14;2.13;;;1.93;;
19388;SDS011;9830;41.876;23.474;2022-10-22T02:42:40;2.73;;;1.63;;
19388;SDS011;9830;41.876;23.474;2022-10-22T02:45:07;1.40;;;1.30;;
19388;SDS011;9830;41.876;23.474;2022-10-22T02:47:33;2.10;;;1.73;;
19388;SDS011;9830;41.876;23.474;2022-10-22T02:49:59;1.73;;;1.63;;
19388;SDS011;9830;41.876;23.474;2022-10-22T02:52:24;0.80;;;0.57;;
19388;SDS011;9830;41.876;23.474;2022-10-22T02:54:50;0.87;;;0.83;;
19388;SDS011;9830;41.876;23.474;2022-10-22T02:57:15;3.00;;;1.83;;
19388;SDS011;9830;41.876;23.474;2022-10-22T02:59:41;1.87;;;0.97;;
19388;SDS011;9830;41.876;23.474;2022-10-22T03:02:07;0.80;;;0.80;;
19388;SDS011;9830;41.876;23.474;2022-10-22T03:04:33;4.07;;;1.83;;
19388;SDS011;9830;41.876;23.474;2022-10-22T03:06:59;4.43;;;0.63;;
19388;SDS011;9830;41.876;23.474;2022-10-22T03:09:25;1.70;;;1.60;;
19388;SDS011;9830;41.876;23.474;2022-10-22T03:11:50;2.10;;;1.20;;
19388;SDS011;9830;41.876;23.474;2022-10-22T03:14:16;46.33;;;2.33;;
19388;SDS011;9830;41.876;23.474;2022-10-22T03:16:42;1.43;;;1.33;;
19388;SDS011;9830;41.876;23.474;2022-10-22T03:19:08;1.57;;;1.33;;
19388;SDS011;9830;41.876;23.474;2022-10-22T03:24:52;10.30;;;1.87;;
19388;SDS011;9830;41.876;23.474;2022-10-22T03:27:19;0.50;;;0.50;;
19388;SDS011;9830;41.876;23.474;2022-10-22T03:29:46;2.87;;;1.97;;
19388;SDS011;9830;41.876;23.474;2022-10-22T03:32:14;0.87;;;0.87;;
19388;SDS011;9830;41.876;23.474;2022-10-22T03:34:39;1.83;;;1.70;;
19388;SDS011;9830;41.876;23.474;2022-10-22T03:37:05;2.93;;;1.97;;
19388;SDS011;9830;41.876;23.474;2022-10-22T03:39:31;7.10;;;4.27;;
19388;SDS011;9830;41.876;23.474;2022-10-22T03:41:58;0.40;;;0.40;;
19388;SDS011;9830;41.876;23.474;2022-10-22T03:44:25;1.70;;;1.60;;
19388;SDS011;9830;41.876;23.474;2022-10-22T03:46:51;0.97;;;0.97;;
19388;SDS011;9830;41.876;23.474;2022-10-22T03:49:17;1.23;;;1.20;;
19388;SDS011;9830;41.876;23.474;2022-10-22T03:51:43;1.80;;;1.17;;
19388;SDS011;9830;41.876;23.474;2022-10-22T03:54:08;2.37;;;2.23;;
19388;SDS011;9830;41.876;23.474;2022-10-22T03:56:34;2.57;;;1.47;;
19388;SDS011;9830;41.876;23.474;2022-10-22T03:59:00;7.33;;;3.67;;
19388;SDS011;9830;41.876;23.474;2022-10-22T04:01:26;8.90;;;2.97;;
19388;SDS011;9830;41.876;23.474;2022-10-22T04:03:53;2.00;;;1.90;;
19388;SDS011;9830;41.876;23.474;2022-10-22T04:06:19;2.23;;;2.07;;
19388;SDS011;9830;41.876;23.474;2022-10-22T04:08:45;3.37;;;3.17;;
19388;SDS011;9830;41.876;23.474;2022-10-22T04:11:11;7.30;;;4.20;;
19388;SDS011;9830;41.876;23.474;2022-10-22T04:13:38;9.77;;;4.67;;
19388;SDS011;9830;41.876;23.474;2022-10-22T04:18:40;4.37;;;3.90;;
19388;SDS011;9830;41.876;23.474;2022-10-22T04:21:07;16.60;;;2.90;;
19388;SDS011;9830;41.876;23.474;2022-10-22T04:23:34;24.87;;;6.70;;
19388;SDS011;9830;41.876;23.474;2022-10-22T04:26:00;16.60;;;4.60;;
19388;SDS011;9830;41.876;23.474;2022-10-22T04:28:28;2.13;;;2.03;;
19388;SDS011;9830;41.876;23.474;2022-10-22T04:30:54;5.90;;;4.90;;
19388;SDS011;9830;41.876;23.474;2022-10-22T04:33:20;3.60;;;3.30;;
19388;SDS011;9830;41.876;23.474;2022-10-22T04:35:46;6.53;;;3.13;;
19388;SDS011;9830;41.876;23.474;2022-10-22T04:38:12;4.07;;;2.83;;
19388;SDS011;9830;41.876;23.474;2022-10-22T04:40:37;4.13;;;3.23;;
19388;SDS011;9830;41.876;23.474;2022-10-22T04:43:03;2.43;;;2.33;;
19388;SDS011;9830;41.876;23.474;2022-10-22T04:45:29;9.43;;;3.97;;
19388;SDS011;9830;41.876;23.474;2022-10-22T04:47:56;5.43;;;3.07;;
19388;SDS011;9830;41.876;23.474;2022-10-22T04:50:22;11.83;;;5.33;;
19388;SDS011;9830;41.876;23.474;2022-10-22T04:52:47;1.57;;;1.47;;
19388;SDS011;9830;41.876;23.474;2022-10-22T04:55:13;2.37;;;2.27;;
19388;SDS011;9830;41.876;23.474;2022-10-22T04:57:39;2.40;;;1.83;;
19388;SDS011;9830;41.876;23.474;2022-10-22T05:00:05;1.93;;;1.83;;
19388;SDS011;9830;41.876;23.474;2022-10-22T05:02:31;2.87;;;2.67;;
19388;SDS011;9830;41.876;23.474;2022-10-22T05:04:57;2.23;;;2.00;;
19388;SDS011;9830;41.876;23.474;2022-10-22T05:07:22;1.93;;;1.83;;
19388;SDS011;9830;41.876;23.474;2022-10-22T05:09:48;9.63;;;3.80;;
19388;SDS011;9830;41.876;23.474;2022-10-22T05:12:14;14.17;;;3.07;;
19388;SDS011;9830;41.876;23.474;2022-10-22T05:14:40;5.13;;;3.63;;
19388;SDS011;9830;41.876;23.474;2022-10-22T05:17:05;3.97;;;3.27;;
19388;SDS011;9830;41.876;23.474;2022-10-22T05:19:31;2.43;;;2.27;;
19388;SDS011;9830;41.876;23.474;2022-10-22T05:21:58;13.23;;;2.93;;
19388;SDS011;9830;41.876;23.474;2022-10-22T05:24:25;7.90;;;2.93;;
19388;SDS011;9830;41.876;23.474;2022-10-22T05:26:52;4.20;;;3.53;;
19388;SDS011;9830;41.876;23.474;2022-10-22T05:29:20;2.80;;;2.57;;
19388;SDS011;9830;41.876;23.474;2022-10-22T05:31:46;3.00;;;1.80;;
19388;SDS011;9830;41.876;23.474;2022-10-22T05:34:12;8.33;;;4.40;;
19388;SDS011;9830;41.876;23.474;2022-10-22T05:36:38;5.43;;;3.93;;
19388;SDS011;9830;41.876;23.474;2022-10-22T05:39:04;3.73;;;2.17;;
19388;SDS011;9830;41.876;23.474;2022-10-22T05:41:30;12.57;;;4.17;;
19388;SDS011;9830;41.876;23.474;2022-10-22T05:43:57;4.97;;;2.97;;
19388;SDS011;9830;41.876;23.474;2022-10-22T05:46:24;6.40;;;3.77;;
19388;SDS011;9830;41.876;23.474;2022-10-22T05:48:52;10.73;;;5.40;;
19388;SDS011;9830;41.876;23.474;2022-10-22T05:51:22;3.67;;;2.80;;
19388;SDS011;9830;41.876;23.474;2022-10-22T05:53:56;3.53;;;3.13;;
19388;SDS011;9830;41.876;23.474;2022-10-22T05:56:23;8.97;;;4.20;;
19388;SDS011;9830;41.876;23.474;2022-10-22T05:58:49;9.57;;;3.17;;
19388;SDS011;9830;41.876;23.474;2022-10-22T06:01:19;2.83;;;2.17;;
19388;SDS011;9830;41.876;23.474;2022-10-22T06:04:00;3.23;;;3.03;;
19388;SDS011;9830;41.876;23.474;2022-10-22T06:06:29;6.13;;;3.87;;
19388;SDS011;9830;41.876;23.474;2022-10-22T06:09:05;4.57;;;3.27;;
19388;SDS011;9830;41.876;23.474;2022-10-22T06:11:37;2.77;;;2.60;;
19388;SDS011;9830;41.876;23.474;2022-10-22T06:14:03;4.53;;;3.53;;
19388;SDS011;9830;41.876;23.474;2022-10-22T06:16:29;4.47;;;3.03;;
19388;SDS011;9830;41.876;23.474;2022-10-22T06:18:57;6.63;;;3.90;;
19388;SDS011;9830;41.876;23.474;2022-10-22T06:21:26;6.83;;;5.27;;
19388;SDS011;9830;41.876;23.474;2022-10-22T06:23:54;8.30;;;4.43;;
19388;SDS011;9830;41.876;23.474;2022-10-22T06:26:20;16.67;;;6.30;;
19388;SDS011;9830;41.876;23.474;2022-10-22T06:28:46;16.47;;;6.27;;
19388;SDS011;9830;41.876;23.474;2022-10-22T06:31:12;8.90;;;6.87;;
19388;SDS011;9830;41.876;23.474;2022-10-22T06:33:38;8.47;;;6.13;;
19388;SDS011;9830;41.876;23.474;2022-10-22T06:36:17;6.60;;;5.83;;
19388;SDS011;9830;41.876;23.474;2022-10-22T06:38:45;12.20;;;9.23;;
19388;SDS011;9830;41.876;23.474;2022-10-22T06:41:12;12.63;;;9.13;;
19388;SDS011;9830;41.876;23.474;2022-10-22T06:43:39;17.50;;;7.63;;
19388;SDS011;9830;41.876;23.474;2022-10-22T06:46:07;17.00;;;9.53;;
19388;SDS011;9830;41.876;23.474;2022-10-22T06:48:34;11.07;;;8.00;;
19388;SDS011;9830;41.876;23.474;2022-10-22T06:51:06;13.43;;;7.60;;
19388;SDS011;9830;41.876;23.474;2022-10-22T06:53:34;15.00;;;8.23;;
19388;SDS011;9830;41.876;23.474;2022-10-22T06:56:04;15.33;;;9.43;;
19388;SDS011;9830;41.876;23.474;2022-10-22T06:58:35;23.17;;;11.70;;
19388;SDS011;9830;41.876;23.474;2022-10-22T07:01:02;17.50;;;10.40;;
19388;SDS011;9830;41.876;23.474;2022-10-22T07:03:29;26.93;;;10.13;;
19388;SDS011;9830;41.876;23.474;2022-10-22T07:05:57;12.43;;;8.43;;
19388;SDS011;9830;41.876;23.474;2022-10-22T07:08:24;9.47;;;7.00;;
19388;SDS011;9830;41.876;23.474;2022-10-22T07:10:49;4.93;;;4.47;;
19388;SDS011;9830;41.876;23.474;2022-10-22T07:13:15;7.43;;;4.40;;
19388;SDS011;9830;41.876;23.474;2022-10-22T07:15:41;7.77;;;4.83;;
19388;SDS011;9830;41.876;23.474;2022-10-22T07:18:06;8.20;;;5.23;;
19388;SDS011;9830;41.876;23.474;2022-10-22T07:20:32;6.27;;;4.00;;
19388;SDS011;9830;41.876;23.474;2022-10-22T07:22:58;5.80;;;5.10;;
19388;SDS011;9830;41.876;23.474;2022-10-22T07:25:23;8.83;;;4.10;;
19388;SDS011;9830;41.876;23.474;2022-10-22T07:27:49;4.57;;;4.00;;
19388;SDS011;9830;41.876;23.474;2022-10-22T07:30:16;5.53;;;3.87;;
19388;SDS011;9830;41.876;23.474;2022-10-22T07:32:42;3.40;;;3.10;;
19388;SDS011;9830;41.876;23.474;2022-10-22T07:35:07;4.27;;;3.90;;
19388;SDS011;9830;41.876;23.474;2022-10-22T07:37:33;5.70;;;3.30;;
19388;SDS011;9830;41.876;23.474;2022-10-22T07:39:59;9.57;;;4.03;;
19388;SDS011;9830;41.876;23.474;2022-10-22T07:42:25;3.67;;;3.37;;
19388;SDS011;9830;41.876;23.474;2022-10-22T07:44:51;3.70;;;3.40;;
19388;SDS011;9830;41.876;23.474;2022-10-22T07:47:16;3.73;;;3.27;;
19388;SDS011;9830;41.876;23.474;2022-10-22T07:49:42;2.73;;;2.63;;
19388;SDS011;9830;41.876;23.474;2022-10-22T07:52:08;3.77;;;3.47;;
19388;SDS011;9830;41.876;23.474;2022-10-22T07:54:33;2.87;;;2.67;;
19388;SDS011;9830;41.876;23.474;2022-10-22T07:56:59;6.00;;;3.70;;
19388;SDS011;9830;41.876;23.474;2022-10-22T07:59:25;2.70;;;2.50;;
19388;SDS011;9830;41.876;23.474;2022-10-22T08:01:50;4.07;;;3.67;;
19388;SDS011;9830;41.876;23.474;2022-10-22T08:04:16;7.33;;;3.13;;
19388;SDS011;9830;41.876;23.474;2022-10-22T08:06:42;7.50;;;1.93;;
19388;SDS011;9830;41.876;23.474;2022-10-22T08:09:07;2.77;;;2.67;;
19388;SDS011;9830;41.876;23.474;2022-10-22T08:11:33;2.97;;;2.77;;
19388;SDS011;9830;41.876;23.474;2022-10-22T08:13:59;6.77;;;3.60;;
19388;SDS011;9830;41.876;23.474;2022-10-22T08:16:24;14.33;;;4.20;;
19388;SDS011;9830;41.876;23.474;2022-10-22T08:18:50;2.35;;;2.25;;
19388;SDS011;9830;41.876;23.474;2022-10-22T08:21:16;6.55;;;3.88;;
19388;SDS011;9830;41.876;23.474;2022-10-22T08:23:42;3.58;;;3.28;;
19388;SDS011;9830;41.876;23.474;2022-10-22T08:26:08;2.70;;;2.55;;
19388;SDS011;9830;41.876;23.474;2022-10-22T08:28:35;29.48;;;3.15;;
19388;SDS011;9830;41.876;23.474;2022-10-22T08:31:07;7.00;;;3.08;;
19388;SDS011;9830;41.876;23.474;2022-10-22T08:33:33;2.58;;;2.38;;
19388;SDS011;9830;41.876;23.474;2022-10-22T08:35:59;4.53;;;1.98;;
19388;SDS011;9830;41.876;23.474;2022-10-22T08:38:25;2.67;;;2.47;;
19388;SDS011;9830;41.876;23.474;2022-10-22T08:40:52;2.13;;;2.03;;
19388;SDS011;9830;41.876;23.474;2022-10-22T08:51:10;4.45;;;2.38;;
19388;SDS011;9830;41.876;23.474;2022-10-22T08:56:28;1.63;;;1.58;;
19388;SDS011;9830;41.876;23.474;2022-10-22T08:58:58;2.38;;;2.17;;
19388;SDS011;9830;41.876;23.474;2022-10-22T09:01:44;3.20;;;2.85;;
19388;SDS011;9830;41.876;23.474;2022-10-22T09:04:15;2.35;;;2.20;;
19388;SDS011;9830;41.876;23.474;2022-10-22T09:06:50;3.15;;;2.28;;
19388;SDS011;9830;41.876;23.474;2022-10-22T09:09:18;1.85;;;1.75;;
19388;SDS011;9830;41.876;23.474;2022-10-22T09:11:48;2.13;;;2.00;;
19388;SDS011;9830;41.876;23.474;2022-10-22T09:14:17;2.58;;;2.17;;
19388;SDS011;9830;41.876;23.474;2022-10-22T09:25:13;1.80;;;1.65;;
19388;SDS011;9830;41.876;23.474;2022-10-22T09:27:45;2.33;;;2.22;;
19388;SDS011;9830;41.876;23.474;2022-10-22T09:30:21;2.37;;;2.17;;
19388;SDS011;9830;41.876;23.474;2022-10-22T09:32:54;1.93;;;1.83;;
19388;SDS011;9830;41.876;23.474;2022-10-22T09:35:24;4.63;;;2.55;;
19388;SDS011;9830;41.876;23.474;2022-10-22T09:37:51;2.42;;;2.17;;
19388;SDS011;9830;41.876;23.474;2022-10-22T09:40:19;1.97;;;1.67;;
19388;SDS011;9830;41.876;23.474;2022-10-22T09:42:46;1.25;;;1.17;;
19388;SDS011;9830;41.876;23.474;2022-10-22T09:45:20;2.23;;;1.63;;
19388;SDS011;9830;41.876;23.474;2022-10-22T09:47:48;3.00;;;2.00;;
19388;SDS011;9830;41.876;23.474;2022-10-22T09:50:23;4.25;;;2.88;;
19388;SDS011;9830;41.876;23.474;2022-10-22T09:53:29;2.65;;;1.92;;
19388;SDS011;9830;41.876;23.474;2022-10-22T09:56:08;3.05;;;2.75;;
19388;SDS011;9830;41.876;23.474;2022-10-22T09:58:42;2.75;;;2.55;;
19388;SDS011;9830;41.876;23.474;2022-10-22T10:01:15;4.05;;;1.55;;
19388;SDS011;9830;41.876;23.474;2022-10-22T10:03:42;2.15;;;2.05;;
19388;SDS011;9830;41.876;23.474;2022-10-22T10:06:07;3.60;;;2.15;;
19388;SDS011;9830;41.876;23.474;2022-10-22T10:08:33;2.70;;;2.50;;
19388;SDS011;9830;41.876;23.474;2022-10-22T10:11:45;3.30;;;2.92;;
19388;SDS011;9830;41.876;23.474;2022-10-22T10:17:01;2.72;;;2.22;;
19388;SDS011;9830;41.876;23.474;2022-10-22T10:20:21;2.58;;;2.30;;
19388;SDS011;9830;41.876;23.474;2022-10-22T10:26:16;5.55;;;2.78;;
19388;SDS011;9830;41.876;23.474;2022-10-22T10:39:50;10.20;;;3.45;;
19388;SDS011;9830;41.876;23.474;2022-10-22T10:42:52;5.30;;;2.42;;
19388;SDS011;9830;41.876;23.474;2022-10-22T10:51:27;3.37;;;2.13;;
19388;SDS011;9830;41.876;23.474;2022-10-22T11:05:25;2.07;;;1.77;;
19388;SDS011;9830;41.876;23.474;2022-10-22T11:08:00;2.90;;;2.40;;
19388;SDS011;9830;41.876;23.474;2022-10-22T11:10:31;2.37;;;2.23;;
19388;SDS011;9830;41.876;23.474;2022-10-22T11:13:02;1.87;;;1.77;;
19388;SDS011;9830;41.876;23.474;2022-10-22T11:15:50;3.03;;;2.67;;
19388;SDS011;9830;41.876;23.474;2022-10-22T11:29:48;2.03;;;1.80;;
19388;SDS011;9830;41.876;23.474;2022-10-22T11:32:21;1.83;;;1.73;;
19388;SDS011;9830;41.876;23.474;2022-10-22T11:34:52;1.93;;;1.83;;
19388;SDS011;9830;41.876;23.474;2022-10-22T11:37:21;2.00;;;1.70;;
19388;SDS011;9830;41.876;23.474;2022-10-22T11:39:51;2.43;;;2.23;;
19388;SDS011;9830;41.876;23.474;2022-10-22T11:42:37;6.53;;;2.47;;
19388;SDS011;9830;41.876;23.474;2022-10-22T11:47:56;1.70;;;1.60;;
19388;SDS011;9830;41.876;23.474;2022-10-22T11:50:23;3.60;;;2.93;;
19388;SDS011;9830;41.876;23.474;2022-10-22T11:55:31;2.07;;;1.97;;
19388;SDS011;9830;41.876;23.474;2022-10-22T12:19:00;2.23;;;1.73;;
19388;SDS011;9830;41.876;23.474;2022-10-22T12:21:37;2.20;;;2.00;;
19388;SDS011;9830;41.876;23.474;2022-10-22T12:24:05;1.47;;;1.37;;
19388;SDS011;9830;41.876;23.474;2022-10-22T12:26:35;1.43;;;1.33;;
19388;SDS011;9830;41.876;23.474;2022-10-22T12:29:04;1.93;;;1.83;;
19388;SDS011;9830;41.876;23.474;2022-10-22T12:31:35;3.13;;;2.57;;
19388;SDS011;9830;41.876;23.474;2022-10-22T12:34:03;3.03;;;1.73;;
19388;SDS011;9830;41.876;23.474;2022-10-22T12:36:31;1.47;;;1.37;;
19388;SDS011;9830;41.876;23.474;2022-10-22T12:38:59;5.27;;;2.53;;
19388;SDS011;9830;41.876;23.474;2022-10-22T12:41:31;1.67;;;1.57;;
19388;SDS011;9830;41.876;23.474;2022-10-22T12:43:58;2.57;;;1.73;;
19388;SDS011;9830;41.876;23.474;2022-10-22T12:46:25;6.63;;;2.00;;
19388;SDS011;9830;41.876;23.474;2022-10-22T12:48:52;2.60;;;2.07;;
19388;SDS011;9830;41.876;23.474;2022-10-22T12:51:20;1.63;;;1.53;;
19388;SDS011;9830;41.876;23.474;2022-10-22T12:53:47;1.27;;;1.27;;
19388;SDS011;9830;41.876;23.474;2022-10-22T12:56:20;1.33;;;1.27;;
19388;SDS011;9830;41.876;23.474;2022-10-22T12:58:50;1.33;;;1.23;;
19388;SDS011;9830;41.876;23.474;2022-10-22T13:01:21;3.37;;;2.37;;
19388;SDS011;9830;41.876;23.474;2022-10-22T13:03:51;1.60;;;1.50;;
19388;SDS011;9830;41.876;23.474;2022-10-22T13:06:42;2.13;;;2.00;;
19388;SDS011;9830;41.876;23.474;2022-10-22T13:09:14;1.83;;;1.73;;
19388;SDS011;9830;41.876;23.474;2022-10-22T13:11:52;1.50;;;1.40;;
19388;SDS011;9830;41.876;23.474;2022-10-22T13:27:46;2.03;;;1.90;;
19388;SDS011;9830;41.876;23.474;2022-10-22T13:32:59;1.80;;;1.27;;
19388;SDS011;9830;41.876;23.474;2022-10-22T13:35:26;2.13;;;1.10;;
19388;SDS011;9830;41.876;23.474;2022-10-22T13:37:53;1.23;;;1.17;;
19388;SDS011;9830;41.876;23.474;2022-10-22T13:40:19;1.83;;;1.73;;
19388;SDS011;9830;41.876;23.474;2022-10-22T13:42:45;4.63;;;2.30;;
19388;SDS011;9830;41.876;23.474;2022-10-22T13:45:11;5.87;;;1.87;;
19388;SDS011;9830;41.876;23.474;2022-10-22T13:47:38;1.43;;;1.33;;
19388;SDS011;9830;41.876;23.474;2022-10-22T13:50:09;3.80;;;1.80;;
19388;SDS011;9830;41.876;23.474;2022-10-22T13:52:41;0.80;;;0.80;;
19388;SDS011;9830;41.876;23.474;2022-10-22T13:55:17;1.20;;;1.10;;
19388;SDS011;9830;41.876;23.474;2022-10-22T13:57:45;1.43;;;1.37;;
19388;SDS011;9830;41.876;23.474;2022-10-22T14:00:15;2.27;;;1.33;;
19388;SDS011;9830;41.876;23.474;2022-10-22T14:02:43;0.80;;;0.80;;
19388;SDS011;9830;41.876;23.474;2022-10-22T14:05:16;2.50;;;1.17;;
19388;SDS011;9830;41.876;23.474;2022-10-22T14:07:43;2.40;;;1.53;;
19388;SDS011;9830;41.876;23.474;2022-10-22T14:10:13;1.83;;;1.73;;
19388;SDS011;9830;41.876;23.474;2022-10-22T14:12:42;1.40;;;1.40;;
19388;SDS011;9830;41.876;23.474;2022-10-22T14:15:11;2.40;;;1.50;;
19388;SDS011;9830;41.876;23.474;2022-10-22T14:17:38;1.20;;;1.17;;
19388;SDS011;9830;41.876;23.474;2022-10-22T14:20:08;1.83;;;1.60;;
19388;SDS011;9830;41.876;23.474;2022-10-22T14:22:43;1.43;;;1.37;;
19388;SDS011;9830;41.876;23.474;2022-10-22T14:25:12;0.97;;;0.97;;
19388;SDS011;9830;41.876;23.474;2022-10-22T14:27:43;2.07;;;1.97;;
19388;SDS011;9830;41.876;23.474;2022-10-22T14:30:12;3.00;;;2.03;;
19388;SDS011;9830;41.876;23.474;2022-10-22T14:32:46;1.17;;;1.17;;
19388;SDS011;9830;41.876;23.474;2022-10-22T14:35:15;2.10;;;2.00;;
19388;SDS011;9830;41.876;23.474;2022-10-22T14:37:43;1.63;;;1.53;;
19388;SDS011;9830;41.876;23.474;2022-10-22T14:40:10;2.63;;;2.40;;
19388;SDS011;9830;41.876;23.474;2022-10-22T14:42:39;3.33;;;1.47;;
19388;SDS011;9830;41.876;23.474;2022-10-22T14:45:18;4.13;;;2.33;;
19388;SDS011;9830;41.876;23.474;2022-10-22T14:47:46;1.60;;;1.57;;
19388;SDS011;9830;41.876;23.474;2022-10-22T14:50:13;1.83;;;1.73;;
19388;SDS011;9830;41.876;23.474;2022-10-22T14:52:39;2.50;;;1.03;;
19388;SDS011;9830;41.876;23.474;2022-10-22T14:55:07;0.70;;;0.70;;
19388;SDS011;9830;41.876;23.474;2022-10-22T14:57:36;0.90;;;0.90;;
19388;SDS011;9830;41.876;23.474;2022-10-22T15:00:06;0.83;;;0.83;;
19388;SDS011;9830;41.876;23.474;2022-10-22T15:02:34;1.10;;;1.03;;
19388;SDS011;9830;41.876;23.474;2022-10-22T15:04:59;1.30;;;1.10;;
19388;SDS011;9830;41.876;23.474;2022-10-22T15:07:25;0.47;;;0.47;;
19388;SDS011;9830;41.876;23.474;2022-10-22T15:09:51;5.00;;;0.93;;
19388;SDS011;9830;41.876;23.474;2022-10-22T15:12:17;0.83;;;0.83;;
19388;SDS011;9830;41.876;23.474;2022-10-22T15:14:44;0.10;;;0.10;;
19388;SDS011;9830;41.876;23.474;2022-10-22T15:17:14;9.87;;;1.20;;
19388;SDS011;9830;41.876;23.474;2022-10-22T15:19:41;0.70;;;0.70;;
19388;SDS011;9830;41.876;23.474;2022-10-22T15:22:10;9.73;;;2.00;;
19388;SDS011;9830;41.876;23.474;2022-10-22T15:24:36;2.23;;;0.90;;
19388;SDS011;9830;41.876;23.474;2022-10-22T15:27:02;0.60;;;0.60;;
19388;SDS011;9830;41.876;23.474;2022-10-22T15:29:29;0.37;;;0.37;;
19388;SDS011;9830;41.876;23.474;2022-10-22T15:31:56;0.13;;;0.13;;
19388;SDS011;9830;41.876;23.474;2022-10-22T15:34:24;1.17;;;1.07;;
19388;SDS011;9830;41.876;23.474;2022-10-22T15:36:52;0.70;;;0.70;;
19388;SDS011;9830;41.876;23.474;2022-10-22T15:39:22;2.57;;;0.70;;
19388;SDS011;9830;41.876;23.474;2022-10-22T15:41:49;2.00;;;0.83;;
19388;SDS011;9830;41.876;23.474;2022-10-22T15:44:20;3.27;;;1.00;;
19388;SDS011;9830;41.876;23.474;2022-10-22T15:46:55;0.90;;;0.60;;
19388;SDS011;9830;41.876;23.474;2022-10-22T15:49:21;0.97;;;0.97;;
19388;SDS011;9830;41.876;23.474;2022-10-22T15:51:48;1.27;;;1.17;;
19388;SDS011;9830;41.876;23.474;2022-10-22T15:54:18;2.00;;;1.53;;
19388;SDS011;9830;41.876;23.474;2022-10-22T15:56:47;1.03;;;1.03;;
19388;SDS011;9830;41.876;23.474;2022-10-22T15:59:13;5.83;;;1.43;;
19388;SDS011;9830;41.876;23.474;2022-10-22T16:01:40;0.43;;;0.43;;
19388;SDS011;9830;41.876;23.474;2022-10-22T16:04:06;2.30;;;1.37;;
19388;SDS011;9830;41.876;23.474;2022-10-22T16:06:42;3.80;;;1.93;;
19388;SDS011;9830;41.876;23.474;2022-10-22T16:09:11;0.90;;;0.80;;
19388;SDS011;9830;41.876;23.474;2022-10-22T16:11:39;13.17;;;2.33;;
19388;SDS011;9830;41.876;23.474;2022-10-22T16:14:05;0.80;;;0.80;;
19388;SDS011;9830;41.876;23.474;2022-10-22T16:16:33;1.10;;;1.00;;
19388;SDS011;9830;41.876;23.474;2022-10-22T16:19:00;1.33;;;1.23;;
19388;SDS011;9830;41.876;23.474;2022-10-22T16:21:27;3.33;;;1.47;;
19388;SDS011;9830;41.876;23.474;2022-10-22T16:23:53;15.63;;;2.10;;
19388;SDS011;9830;41.876;23.474;2022-10-22T16:26:19;3.40;;;1.40;;
19388;SDS011;9830;41.876;23.474;2022-10-22T16:28:45;1.80;;;1.50;;
19388;SDS011;9830;41.876;23.474;2022-10-22T16:31:12;2.77;;;2.17;;
19388;SDS011;9830;41.876;23.474;2022-10-22T16:33:40;2.80;;;1.47;;
19388;SDS011;9830;41.876;23.474;2022-10-22T16:36:09;1.53;;;1.43;;
19388;SDS011;9830;41.876;23.474;2022-10-22T16:38:36;1.47;;;1.37;;
19388;SDS011;9830;41.876;23.474;2022-10-22T16:41:15;1.77;;;1.20;;
19388;SDS011;9830;41.876;23.474;2022-10-22T16:43:47;2.77;;;1.33;;
19388;SDS011;9830;41.876;23.474;2022-10-22T16:46:14;2.80;;;1.43;;
19388;SDS011;9830;41.876;23.474;2022-10-22T16:48:48;1.07;;;1.00;;
19388;SDS011;9830;41.876;23.474;2022-10-22T16:51:17;0.80;;;0.80;;
19388;SDS011;9830;41.876;23.474;2022-10-22T16:53:44;0.87;;;0.87;;
19388;SDS011;9830;41.876;23.474;2022-10-22T16:56:10;0.73;;;0.73;;
19388;SDS011;9830;41.876;23.474;2022-10-22T16:58:37;1.50;;;0.60;;
19388;SDS011;9830;41.876;23.474;2022-10-22T17:01:07;1.10;;;1.03;;
19388;SDS011;9830;41.876;23.474;2022-10-22T17:03:33;1.93;;;1.83;;
19388;SDS011;9830;41.876;23.474;2022-10-22T17:05:59;2.97;;;1.30;;
19388;SDS011;9830;41.876;23.474;2022-10-22T17:08:25;3.10;;;1.60;;
19388;SDS011;9830;41.876;23.474;2022-10-22T17:10:51;4.43;;;1.40;;
19388;SDS011;9830;41.876;23.474;2022-10-22T17:13:18;2.33;;;2.13;;
19388;SDS011;9830;41.876;23.474;2022-10-22T17:15:43;1.23;;;1.13;;
19388;SDS011;9830;41.876;23.474;2022-10-22T17:18:09;0.90;;;0.90;;
19388;SDS011;9830;41.876;23.474;2022-10-22T17:20:39;1.07;;;1.07;;
19388;SDS011;9830;41.876;23.474;2022-10-22T17:23:06;3.10;;;1.70;;
19388;SDS011;9830;41.876;23.474;2022-10-22T17:25:37;1.37;;;1.03;;